createdAt,value
2023-01-27T00:01:27.144Z,52.67
2023-01-27T00:04:01.654Z,73.10
2023-01-27T00:06:44.336Z,84.78
2023-01-27T00:09:14.375Z,78.28
2023-01-27T00:12:01.653Z,54.75
2023-01-27T00:14:31.124Z,84.72
2023-01-27T00:17:39.059Z,73.47
2023-01-27T00:24:38.177Z,58.55
2023-01-27T00:27:19.938Z,84.28
2023-01-27T00:30:01.102Z,74.97
2023-01-27T00:32:49.741Z,154.27
2023-01-27T00:35:21.206Z,126.50
2023-01-27T00:37:50.437Z,153.15
2023-01-27T00:40:20.256Z,162.35
2023-01-27T00:42:49.247Z,157.07
2023-01-27T00:45:49.544Z,165.43
2023-01-27T00:48:18.963Z,242.77
2023-01-27T00:50:48.890Z,146.45
2023-01-27T00:53:31.007Z,181.15
2023-01-27T00:56:06.282Z,287.90
2023-01-27T00:58:35.249Z,230.63
2023-01-27T01:01:10.596Z,363.13
2023-01-27T01:03:46.922Z,186.32
2023-01-27T01:06:18.315Z,206.02
2023-01-27T01:08:59.196Z,334.85
2023-01-27T01:11:28.509Z,179.80
2023-01-27T01:13:58.625Z,254.32
2023-01-27T01:16:28.946Z,251.63
2023-01-27T01:18:58.415Z,212.70
2023-01-27T01:21:28.628Z,229.02
2023-01-27T01:23:57.504Z,290.55
2023-01-27T01:26:30.408Z,168.55
2023-01-27T01:29:11.576Z,248.88
2023-01-27T01:31:41.495Z,263.27
2023-01-27T01:34:16.920Z,154.63
2023-01-27T01:36:46.670Z,237.48
2023-01-27T01:39:16.400Z,268.75
2023-01-27T01:41:48.354Z,359.65
2023-01-27T01:44:44.438Z,197.93
2023-01-27T01:47:19.926Z,119.82
2023-01-27T01:49:49.449Z,184.68
2023-01-27T01:52:26.927Z,223.43
2023-01-27T01:54:57.907Z,157.73
2023-01-27T01:57:43.254Z,210.27
2023-01-27T02:00:42.961Z,211.18
2023-01-27T02:03:14.206Z,196.57
2023-01-27T02:06:00.616Z,241.27
2023-01-27T02:09:01.461Z,130.32
2023-01-27T02:11:31.416Z,136.25
2023-01-27T02:14:10.002Z,113.43
2023-01-27T02:16:38.794Z,121.07
2023-01-27T02:19:22.359Z,109.15
2023-01-27T02:21:58.007Z,82.05
2023-01-27T02:25:26.196Z,108.97
2023-01-27T02:29:10.305Z,140.23
2023-01-27T02:31:44.507Z,91.88
2023-01-27T02:34:29.269Z,102.68
2023-01-27T02:37:03.908Z,81.93
2023-01-27T02:39:43.124Z,82.78
2023-01-27T02:45:11.670Z,139.50
2023-01-27T02:47:40.586Z,148.40
2023-01-27T02:50:11.256Z,149.50
2023-01-27T02:52:40.374Z,185.75
2023-01-27T02:55:13.583Z,250.32
2023-01-27T02:57:45.307Z,235.52
2023-01-27T03:04:02.542Z,113.15
2023-01-27T03:06:31.471Z,145.75
2023-01-27T03:09:02.509Z,148.90
2023-01-27T03:12:00.319Z,88.28
2023-01-27T03:14:48.602Z,120.85
2023-01-27T03:17:41.795Z,92.65
2023-01-27T03:24:06.162Z,112.60
2023-01-27T03:26:39.275Z,88.88
2023-01-27T03:29:28.717Z,86.88
2023-01-27T03:31:59.357Z,77.72
2023-01-27T03:34:35.065Z,95.13
2023-01-27T03:37:30.295Z,73.95
2023-01-27T03:40:50.645Z,71.00
2023-01-27T03:43:39.207Z,57.03
2023-01-27T03:46:21.469Z,72.25
2023-01-27T03:48:55.473Z,85.38
2023-01-27T03:52:32.205Z,68.30
2023-01-27T03:55:02.243Z,66.20
2023-01-27T03:57:34.327Z,68.82
2023-01-27T04:00:04.476Z,83.90
2023-01-27T04:03:33.199Z,66.28
2023-01-27T04:09:29.057Z,68.15
2023-01-27T04:12:02.481Z,63.08
2023-01-27T04:14:38.000Z,58.65
2023-01-27T04:17:18.860Z,64.82
2023-01-27T04:19:49.869Z,67.70
2023-01-27T04:22:21.336Z,67.38
2023-01-27T04:24:56.334Z,63.47
2023-01-27T04:27:29.637Z,66.20
2023-01-27T04:30:01.264Z,59.67
2023-01-27T04:32:30.796Z,74.95
2023-01-27T04:35:06.828Z,65.90
2023-01-27T04:37:39.731Z,80.22
2023-01-27T04:41:17.139Z,88.25
2023-01-27T04:43:46.768Z,71.53
2023-01-27T04:46:15.305Z,82.97
2023-01-27T04:48:44.342Z,92.90
2023-01-27T04:51:22.745Z,85.18
2023-01-27T04:53:52.482Z,81.43
2023-01-27T04:56:32.915Z,114.45
2023-01-27T04:59:07.058Z,97.15
2023-01-27T05:01:35.693Z,114.78
2023-01-27T05:04:16.011Z,120.63
2023-01-27T05:06:50.513Z,111.75
2023-01-27T05:09:20.710Z,119.72
2023-01-27T05:11:49.291Z,136.40
2023-01-27T05:14:37.030Z,146.98
2023-01-27T05:17:10.611Z,158.65
2023-01-27T05:19:40.708Z,172.32
2023-01-27T05:22:24.557Z,132.00
2023-01-27T05:25:19.916Z,132.55
2023-01-27T05:28:09.689Z,103.38
2023-01-27T05:30:45.395Z,100.65
2023-01-27T05:33:16.926Z,103.97
2023-01-27T05:35:46.623Z,108.70
2023-01-27T05:38:15.891Z,118.63
2023-01-27T05:41:07.572Z,136.18
2023-01-27T05:50:59.914Z,125.18
2023-01-27T05:53:28.382Z,134.20
2023-01-27T05:55:58.658Z,133.40
2023-01-27T05:58:27.181Z,131.85
2023-01-27T06:01:23.185Z,109.15
2023-01-27T06:03:53.062Z,133.68
2023-01-27T06:06:24.497Z,100.30
2023-01-27T06:09:59.035Z,102.55
2023-01-27T06:12:47.948Z,81.00
2023-01-27T06:15:17.648Z,81.78
2023-01-27T06:17:46.355Z,81.45
2023-01-27T06:20:16.242Z,103.43
2023-01-27T06:22:46.669Z,79.63
2023-01-27T06:25:19.909Z,89.70
2023-01-27T06:27:49.254Z,85.68
2023-01-27T06:30:19.957Z,83.90
2023-01-27T06:33:01.800Z,94.05
2023-01-27T06:35:33.064Z,72.85
2023-01-27T06:38:12.960Z,71.88
2023-01-27T06:40:43.930Z,80.57
2023-01-27T06:43:14.277Z,64.88
2023-01-27T06:45:45.790Z,85.15
2023-01-27T06:48:18.171Z,81.93
2023-01-27T06:50:48.919Z,100.00
2023-01-27T06:53:18.827Z,83.70
2023-01-27T06:55:47.089Z,78.68
2023-01-27T06:58:24.800Z,85.90
2023-01-27T07:00:55.361Z,78.38
2023-01-27T07:03:32.424Z,80.68
2023-01-27T07:06:01.016Z,83.50
2023-01-27T07:08:34.991Z,68.75
2023-01-27T07:11:16.237Z,74.38
2023-01-27T07:13:46.153Z,78.45
2023-01-27T07:16:24.951Z,78.50
2023-01-27T07:19:09.344Z,72.88
2023-01-27T07:21:41.996Z,56.17
2023-01-27T07:24:17.481Z,66.15
2023-01-27T07:26:47.840Z,80.03
2023-01-27T07:29:19.001Z,63.13
2023-01-27T07:31:48.328Z,76.35
2023-01-27T07:34:17.955Z,64.32
2023-01-27T07:36:53.769Z,61.13
2023-01-27T07:39:24.705Z,71.35
2023-01-27T07:41:58.206Z,80.45
2023-01-27T07:44:28.569Z,122.65
2023-01-27T07:46:59.193Z,88.80
2023-01-27T07:49:31.402Z,64.03
2023-01-27T07:52:01.485Z,53.47
2023-01-27T07:54:33.848Z,56.58
2023-01-27T07:57:04.931Z,66.57
2023-01-27T07:59:34.111Z,61.10
2023-01-27T08:02:03.808Z,65.68
2023-01-27T08:04:43.481Z,47.55
2023-01-27T08:07:19.685Z,50.28
2023-01-27T08:09:49.182Z,62.65
2023-01-27T08:12:18.576Z,57.05
2023-01-27T08:15:12.944Z,57.38
2023-01-27T08:17:41.584Z,49.58
2023-01-27T08:20:18.726Z,55.80
2023-01-27T08:22:48.224Z,59.80
2023-01-27T08:25:17.364Z,42.30
2023-01-27T08:27:52.553Z,51.83
2023-01-27T08:30:26.254Z,51.40
2023-01-27T08:33:02.962Z,45.38
2023-01-27T08:35:31.798Z,68.75
2023-01-27T08:38:13.968Z,53.28
2023-01-27T08:40:50.490Z,58.13
2023-01-27T08:43:20.863Z,57.95
2023-01-27T08:45:55.252Z,48.55
2023-01-27T08:48:26.506Z,51.13
2023-01-27T08:52:12.830Z,80.10
2023-01-27T08:54:46.792Z,76.75
2023-01-27T08:57:25.222Z,100.53
2023-01-27T09:00:02.506Z,73.85
2023-01-27T09:02:31.951Z,84.45
2023-01-27T09:05:01.587Z,94.28
2023-01-27T09:07:34.296Z,70.18
2023-01-27T09:10:14.159Z,80.30
2023-01-27T09:12:46.427Z,57.17
2023-01-27T09:15:16.874Z,49.63
2023-01-27T09:17:45.728Z,61.20
2023-01-27T09:20:22.546Z,56.00
2023-01-27T09:22:56.267Z,101.43
2023-01-27T09:25:25.950Z,72.53
2023-01-27T09:28:00.426Z,82.13
2023-01-27T09:30:33.029Z,64.57
2023-01-27T09:33:08.133Z,53.80
2023-01-27T09:35:46.451Z,54.40
2023-01-27T09:38:27.695Z,71.85
2023-01-27T09:41:15.451Z,85.30
2023-01-27T09:43:51.162Z,75.38
2023-01-27T09:46:57.418Z,62.70
2023-01-27T09:50:01.369Z,55.47
2023-01-27T09:52:47.541Z,62.65
2023-01-27T09:55:56.363Z,64.70
2023-01-27T09:58:42.406Z,64.18
2023-01-27T10:01:40.646Z,51.05
2023-01-27T10:04:42.564Z,50.50
2023-01-27T10:08:00.290Z,61.67
2023-01-27T10:10:47.634Z,51.72
2023-01-27T10:13:47.259Z,51.30
2023-01-27T10:16:53.920Z,50.00
2023-01-27T10:19:51.180Z,52.97
2023-01-27T10:22:49.366Z,54.20
2023-01-27T10:25:38.328Z,47.95
2023-01-27T10:28:16.854Z,54.42
2023-01-27T10:31:26.373Z,53.97
2023-01-27T10:33:58.974Z,52.60
2023-01-27T10:36:35.787Z,53.58
2023-01-27T10:39:31.732Z,67.65
2023-01-27T10:42:38.250Z,49.83
2023-01-27T10:45:07.524Z,57.93
2023-01-27T10:47:57.376Z,53.70
2023-01-27T10:50:41.474Z,115.72
2023-01-27T10:53:14.974Z,48.33
2023-01-27T10:56:15.327Z,49.88
2023-01-27T10:59:05.975Z,70.10
2023-01-27T11:01:45.102Z,75.07
2023-01-27T11:04:30.806Z,53.80
2023-01-27T11:07:04.307Z,468.25
2023-01-27T11:10:09.480Z,273.80
2023-01-27T11:12:44.446Z,80.70
2023-01-27T11:15:20.182Z,70.53
2023-01-27T11:18:32.608Z,55.33
2023-01-27T11:21:32.690Z,41.90
2023-01-27T11:24:14.048Z,54.70
2023-01-27T11:26:50.245Z,52.35
2023-01-27T11:32:03.359Z,44.50
2023-01-27T11:35:01.382Z,56.30
2023-01-27T11:37:42.067Z,64.10
2023-01-27T11:40:30.171Z,52.15
2023-01-27T11:43:04.066Z,45.20
2023-01-27T11:45:36.650Z,41.55
2023-01-27T11:48:12.987Z,43.50
2023-01-27T11:55:54.753Z,102.38
2023-01-27T11:58:49.707Z,83.88
2023-01-27T12:02:21.388Z,155.60
2023-01-27T12:04:55.558Z,116.40
2023-01-27T12:07:39.800Z,90.20
2023-01-27T12:10:33.973Z,114.03
2023-01-27T12:13:51.357Z,129.77
2023-01-27T12:16:20.230Z,93.90
2023-01-27T12:19:02.984Z,101.20
2023-01-27T12:21:51.455Z,50.42
2023-01-27T12:24:39.437Z,91.43
2023-01-27T12:27:24.178Z,82.93
2023-01-27T12:30:08.881Z,129.02
2023-01-27T12:32:45.440Z,70.93
2023-01-27T12:35:25.289Z,57.58
2023-01-27T12:38:13.360Z,53.00
2023-01-27T12:40:47.164Z,48.83
2023-01-27T12:43:22.795Z,53.22
2023-01-27T12:46:22.408Z,48.28
2023-01-27T12:48:54.143Z,44.88
2023-01-27T12:51:36.432Z,26.65
2023-01-27T12:54:25.255Z,24.42
2023-01-27T12:56:57.986Z,25.35
2023-01-27T12:59:30.237Z,28.35
2023-01-27T13:02:22.776Z,32.72
2023-01-27T13:05:02.496Z,45.97
2023-01-27T13:07:44.212Z,30.67
2023-01-27T13:10:26.314Z,28.00
2023-01-27T13:13:01.080Z,24.95
2023-01-27T13:15:56.962Z,104.32
2023-01-27T13:18:33.458Z,53.45
2023-01-27T13:21:32.752Z,96.47
2023-01-27T13:24:11.284Z,47.17
2023-01-27T13:26:48.414Z,33.55
2023-01-27T13:32:35.159Z,34.80
2023-01-27T13:35:04.988Z,48.55
2023-01-27T13:38:25.867Z,43.05
2023-01-27T13:40:54.731Z,38.30
2023-01-27T13:43:33.905Z,28.20
2023-01-27T13:46:17.518Z,58.47
2023-01-27T13:49:09.160Z,88.00
2023-01-27T13:51:39.581Z,61.67
2023-01-27T13:54:13.181Z,116.45
2023-01-27T13:57:05.867Z,137.50
2023-01-27T14:00:03.854Z,39.53
2023-01-27T14:03:19.025Z,34.63
2023-01-27T14:06:24.461Z,48.75
2023-01-27T14:08:54.425Z,28.92
2023-01-27T14:11:40.396Z,28.20
2023-01-27T14:14:38.346Z,82.93
2023-01-27T14:17:40.001Z,16.80
2023-01-27T14:20:39.341Z,102.60
2023-01-27T14:23:19.247Z,28.77
2023-01-27T14:26:04.468Z,30.90
2023-01-27T14:28:55.041Z,12.20
2023-01-27T14:31:46.348Z,10.77
2023-01-27T14:34:28.215Z,14.05
2023-01-27T14:37:20.853Z,11.52
2023-01-27T14:40:14.469Z,14.07
2023-01-27T14:43:12.293Z,11.65
2023-01-27T14:46:06.627Z,42.88
2023-01-27T14:48:41.055Z,20.65
2023-01-27T14:51:23.028Z,45.67
2023-01-27T14:53:53.098Z,25.38
2023-01-27T14:56:21.519Z,16.25
2023-01-27T14:58:57.391Z,22.33
2023-01-27T15:01:42.921Z,26.98
2023-01-27T15:04:20.331Z,24.60
2023-01-27T15:07:16.199Z,26.23
2023-01-27T15:09:45.739Z,20.50
2023-01-27T15:12:37.770Z,32.92
2023-01-27T15:15:33.325Z,28.45
2023-01-27T15:18:33.834Z,24.75
2023-01-27T15:21:29.157Z,46.08
2023-01-27T15:24:02.344Z,45.85
2023-01-27T15:26:34.482Z,24.38
2023-01-27T15:29:04.399Z,34.83
2023-01-27T15:31:33.547Z,49.22
2023-01-27T15:34:04.662Z,43.63
2023-01-27T15:36:57.978Z,73.15
2023-01-27T15:39:40.440Z,18.95
2023-01-27T15:42:12.015Z,26.13
2023-01-27T15:45:01.186Z,36.15
2023-01-27T15:47:35.639Z,54.47
2023-01-27T15:50:11.939Z,17.00
2023-01-27T15:52:55.332Z,31.58
2023-01-27T15:55:32.076Z,299.10
2023-01-27T15:58:05.999Z,45.08
2023-01-27T16:00:39.950Z,31.38
2023-01-27T16:03:33.548Z,18.20
2023-01-27T16:06:12.964Z,39.10
2023-01-27T16:09:05.928Z,16.42
2023-01-27T16:11:35.111Z,21.65
2023-01-27T16:14:12.778Z,19.50
2023-01-27T16:16:48.431Z,27.08
2023-01-27T16:19:22.902Z,80.03
2023-01-27T16:22:19.021Z,119.47
2023-01-27T16:25:01.230Z,94.72
2023-01-27T16:27:45.776Z,96.72
2023-01-27T16:30:38.319Z,163.85
2023-01-27T16:33:16.521Z,45.20
2023-01-27T16:35:55.336Z,25.92
2023-01-27T16:38:39.288Z,13.82
2023-01-27T16:41:18.152Z,13.15
2023-01-27T16:44:45.864Z,15.63
2023-01-27T16:47:45.822Z,22.58
2023-01-27T16:50:38.859Z,25.70
2023-01-27T16:53:40.074Z,76.32
2023-01-27T16:56:20.241Z,84.05
2023-01-27T16:58:51.237Z,26.05
2023-01-27T17:01:37.848Z,28.45
2023-01-27T17:04:19.519Z,16.40
2023-01-27T17:06:50.749Z,33.38
2023-01-27T17:09:43.761Z,100.20
2023-01-27T17:12:51.800Z,59.10
2023-01-27T17:17:50.880Z,68.25
2023-01-27T17:20:32.419Z,118.50
2023-01-27T17:23:04.279Z,73.25
2023-01-27T17:25:39.427Z,24.38
2023-01-27T17:28:16.793Z,22.92
2023-01-27T17:30:53.443Z,68.72
2023-01-27T17:33:32.023Z,29.08
2023-01-27T17:36:11.020Z,29.92
2023-01-27T17:38:52.061Z,25.67
2023-01-27T17:41:45.633Z,45.70
2023-01-27T17:44:14.792Z,30.52
2023-01-27T17:46:44.185Z,19.50
2023-01-27T17:49:18.232Z,20.42
2023-01-27T17:51:55.936Z,121.93
2023-01-27T17:54:31.085Z,43.35
2023-01-27T17:57:00.184Z,21.70
2023-01-27T17:59:34.446Z,8.98
2023-01-27T18:02:22.284Z,12.15
2023-01-27T18:05:01.046Z,12.25
2023-01-27T18:07:35.222Z,14.25
2023-01-27T18:10:26.696Z,24.88
2023-01-27T18:12:58.646Z,13.77
2023-01-27T18:15:38.463Z,11.00
2023-01-27T18:18:23.375Z,5.72
2023-01-27T18:21:09.749Z,8.75
2023-01-27T18:23:54.929Z,10.55
2023-01-27T18:26:28.141Z,7.72
2023-01-27T18:29:05.259Z,9.88
2023-01-27T18:31:58.425Z,7.55
2023-01-27T18:34:34.330Z,5.68
2023-01-27T18:37:07.265Z,55.67
2023-01-27T18:39:38.376Z,14.82
2023-01-27T18:42:26.405Z,17.80
2023-01-27T18:44:55.958Z,9.82
2023-01-27T18:47:36.487Z,10.43
2023-01-27T18:50:29.763Z,5.93
2023-01-27T18:53:00.641Z,4.32
2023-01-27T18:55:31.785Z,6.53
2023-01-27T18:58:00.569Z,4.90
2023-01-27T19:00:55.668Z,6.93
2023-01-27T19:03:27.525Z,4.90
2023-01-27T19:05:56.385Z,6.40
2023-01-27T19:08:25.166Z,5.80
2023-01-27T19:10:55.075Z,5.10
2023-01-27T19:13:25.478Z,9.68
2023-01-27T19:15:55.268Z,5.78
2023-01-27T19:21:18.170Z,365.25
2023-01-27T19:24:06.110Z,123.40
2023-01-27T19:26:37.689Z,65.85
2023-01-27T19:29:06.140Z,62.63
2023-01-27T19:31:35.013Z,158.48
2023-01-27T19:34:05.036Z,20.20
2023-01-27T19:36:49.099Z,7.53
2023-01-27T19:39:19.918Z,29.35
2023-01-27T19:41:52.369Z,48.53
2023-01-27T19:44:59.927Z,14.38
2023-01-27T19:47:29.963Z,32.50
2023-01-27T19:50:00.169Z,14.63
2023-01-27T19:52:32.052Z,13.07
2023-01-27T19:55:05.113Z,12.27
2023-01-27T19:58:05.260Z,15.32
2023-01-27T20:00:36.825Z,14.02
2023-01-27T20:03:06.307Z,11.63
2023-01-27T20:05:41.441Z,12.27
2023-01-27T20:08:19.129Z,12.85
2023-01-27T20:10:59.109Z,7.15
2023-01-27T20:13:33.984Z,15.70
2023-01-27T20:16:03.292Z,23.73
2023-01-27T20:18:39.031Z,16.65
2023-01-27T20:21:07.671Z,13.70
2023-01-27T20:23:39.262Z,9.00
2023-01-27T20:26:15.324Z,7.72
2023-01-27T20:28:49.084Z,11.30
2023-01-27T20:31:40.646Z,8.40
2023-01-27T20:34:18.159Z,6.57
2023-01-27T20:36:55.055Z,23.92
2023-01-27T20:39:32.369Z,10.32
2023-01-27T20:42:02.502Z,11.02
2023-01-27T20:44:54.585Z,7.60
2023-01-27T20:47:25.041Z,8.32
2023-01-27T20:50:00.371Z,19.73
2023-01-27T20:52:29.961Z,7.30
2023-01-27T20:55:01.553Z,4.13
2023-01-27T21:00:24.992Z,12.00
2023-01-27T21:02:53.706Z,6.25
2023-01-27T21:05:28.219Z,17.83
2023-01-27T21:07:57.612Z,11.25
2023-01-27T21:10:33.462Z,47.78
2023-01-27T21:13:04.028Z,56.58
2023-01-27T21:15:33.558Z,9.30
2023-01-27T21:18:03.577Z,39.17
2023-01-27T21:20:38.574Z,13.55
2023-01-27T21:23:07.296Z,30.75
2023-01-27T21:25:38.543Z,88.32
2023-01-27T21:28:13.115Z,25.75
2023-01-27T21:30:49.111Z,28.10
2023-01-27T21:33:24.105Z,67.60
2023-01-27T21:35:58.047Z,60.45
2023-01-27T21:38:27.015Z,99.45
2023-01-27T21:41:39.787Z,52.50
2023-01-27T21:44:41.350Z,53.90
2023-01-27T21:47:15.565Z,58.55
2023-01-27T21:50:05.367Z,150.88
2023-01-27T21:52:45.606Z,321.02
2023-01-27T21:55:21.956Z,192.00
2023-01-27T21:57:59.070Z,75.53
2023-01-27T22:00:29.442Z,110.22
2023-01-27T22:03:03.254Z,95.03
2023-01-27T22:05:33.857Z,60.80
2023-01-27T22:08:08.283Z,39.63
2023-01-27T22:10:39.378Z,47.28
2023-01-27T22:13:10.830Z,15.55
2023-01-27T22:15:38.997Z,11.25
2023-01-27T22:18:09.281Z,43.75
2023-01-27T22:20:40.902Z,8.18
2023-01-27T22:23:12.597Z,9.57
2023-01-27T22:25:41.388Z,7.35
2023-01-27T22:28:10.234Z,9.30
2023-01-27T22:30:40.176Z,5.30
2023-01-27T22:33:10.201Z,8.27
2023-01-27T22:35:42.692Z,4.93
2023-01-27T22:38:23.833Z,7.53
2023-01-27T22:40:58.657Z,7.07
2023-01-27T22:43:27.660Z,8.93
2023-01-27T22:45:56.115Z,6.72
2023-01-27T22:48:40.347Z,6.75
2023-01-27T22:51:11.376Z,6.60
2023-01-27T22:54:06.809Z,8.85
2023-01-27T22:56:37.232Z,7.90
2023-01-27T22:59:07.857Z,8.35
2023-01-27T23:01:45.317Z,10.13
2023-01-27T23:04:14.365Z,8.23
2023-01-27T23:06:42.655Z,8.88
2023-01-27T23:09:13.702Z,8.88
2023-01-27T23:11:42.593Z,12.30
2023-01-27T23:14:11.917Z,11.43
2023-01-27T23:16:40.677Z,10.02
2023-01-27T23:19:13.435Z,11.43
2023-01-27T23:21:41.847Z,10.35
2023-01-27T23:24:14.401Z,9.27
2023-01-27T23:26:43.579Z,8.90
2023-01-27T23:30:00.632Z,12.70
2023-01-27T23:32:38.175Z,9.10
2023-01-27T23:35:11.949Z,9.00
2023-01-27T23:37:42.450Z,9.50
2023-01-27T23:40:13.433Z,11.45
2023-01-27T23:46:14.640Z,9.05
2023-01-27T23:48:44.251Z,10.65
2023-01-27T23:51:16.024Z,8.02
2023-01-27T23:53:45.074Z,6.38
